sensor_id;sensor_type;location;lat;lon;timestamp;pressure;altitude;pressure_sealevel;temperature;humidity
79368;BME280;68834;53.152;17.962;2023-04-21T00:01:14;101767.28;;;8.68;58.59
79368;BME280;68834;53.152;17.962;2023-04-21T00:03:41;101768.68;;;8.68;58.53
79368;BME280;68834;53.152;17.962;2023-04-21T00:06:09;101764.67;;;8.66;58.44
79368;BME280;68834;53.152;17.962;2023-04-21T00:08:36;101763.11;;;8.64;58.70
79368;BME280;68834;53.152;17.962;2023-04-21T00:11:06;101766.95;;;8.59;58.83
79368;BME280;68834;53.152;17.962;2023-04-21T00:13:34;101766.59;;;8.57;58.93
79368;BME280;68834;53.152;17.962;2023-04-21T00:16:02;101766.06;;;8.54;58.86
79368;BME280;68834;53.152;17.962;2023-04-21T00:18:29;101761.36;;;8.52;58.93
79368;BME280;68834;53.152;17.962;2023-04-21T00:20:56;101764.32;;;8.47;59.14
79368;BME280;68834;53.152;17.962;2023-04-21T00:23:23;101760.84;;;8.42;59.27
79368;BME280;68834;53.152;17.962;2023-04-21T00:25:49;101758.73;;;8.38;59.44
79368;BME280;68834;53.152;17.962;2023-04-21T00:28:16;101763.76;;;8.33;59.69
79368;BME280;68834;53.152;17.962;2023-04-21T00:30:42;101759.05;;;8.26;59.75
79368;BME280;68834;53.152;17.962;2023-04-21T00:33:09;101755.92;;;8.21;59.91
79368;BME280;68834;53.152;17.962;2023-04-21T00:35:36;101755.03;;;8.14;60.12
79368;BME280;68834;53.152;17.962;2023-04-21T00:38:02;101755.73;;;8.10;60.16
79368;BME280;68834;53.152;17.962;2023-04-21T00:40:29;101755.38;;;8.05;60.14
79368;BME280;68834;53.152;17.962;2023-04-21T00:42:55;101755.89;;;8.01;60.26
79368;BME280;68834;53.152;17.962;2023-04-21T00:45:22;101754.48;;;7.95;60.19
79368;BME280;68834;53.152;17.962;2023-04-21T00:47:49;101752.73;;;7.90;60.35
79368;BME280;68834;53.152;17.962;2023-04-21T00:50:17;101752.72;;;7.85;60.36
79368;BME280;68834;53.152;17.962;2023-04-21T00:52:44;101752.55;;;7.82;60.54
79368;BME280;68834;53.152;17.962;2023-04-21T00:55:13;101757.74;;;7.79;60.69
79368;BME280;68834;53.152;17.962;2023-04-21T00:57:42;101754.27;;;7.77;60.80
79368;BME280;68834;53.152;17.962;2023-04-21T01:00:09;101755.48;;;7.76;61.00
79368;BME280;68834;53.152;17.962;2023-04-21T01:02:38;101756.35;;;7.77;61.20
79368;BME280;68834;53.152;17.962;2023-04-21T01:05:07;101749.05;;;7.77;60.99
79368;BME280;68834;53.152;17.962;2023-04-21T01:07:34;101747.83;;;7.78;60.93
79368;BME280;68834;53.152;17.962;2023-04-21T01:10:02;101750.61;;;7.78;60.97
79368;BME280;68834;53.152;17.962;2023-04-21T01:12:30;101750.27;;;7.77;61.17
79368;BME280;68834;53.152;17.962;2023-04-21T01:14:58;101755.48;;;7.74;61.08
79368;BME280;68834;53.152;17.962;2023-04-21T01:17:25;101751.98;;;7.72;61.22
79368;BME280;68834;53.152;17.962;2023-04-21T01:19:52;101747.81;;;7.71;61.15
79368;BME280;68834;53.152;17.962;2023-04-21T01:22:21;101749.53;;;7.68;61.08
79368;BME280;68834;53.152;17.962;2023-04-21T01:24:48;101754.58;;;7.64;61.38
79368;BME280;68834;53.152;17.962;2023-04-21T01:27:17;101752.29;;;7.58;61.42
79368;BME280;68834;53.152;17.962;2023-04-21T01:29:45;101746.88;;;7.50;61.52
79368;BME280;68834;53.152;17.962;2023-04-21T01:32:17;101743.71;;;7.44;61.91
79368;BME280;68834;53.152;17.962;2023-04-21T01:34:45;101741.58;;;7.35;61.97
79368;BME280;68834;53.152;17.962;2023-04-21T01:37:15;101737.20;;;7.27;61.80
79368;BME280;68834;53.152;17.962;2023-04-21T01:39:44;101736.13;;;7.21;62.16
79368;BME280;68834;53.152;17.962;2023-04-21T01:42:12;101734.20;;;7.17;62.17
79368;BME280;68834;53.152;17.962;2023-04-21T01:44:39;101738.70;;;7.14;62.26
79368;BME280;68834;53.152;17.962;2023-04-21T01:47:06;101736.61;;;7.13;62.30
79368;BME280;68834;53.152;17.962;2023-04-21T01:49:33;101738.34;;;7.11;62.51
79368;BME280;68834;53.152;17.962;2023-04-21T01:51:59;101739.54;;;7.07;62.63
79368;BME280;68834;53.152;17.962;2023-04-21T01:54:26;101742.80;;;7.01;62.85
79368;BME280;68834;53.152;17.962;2023-04-21T01:56:53;101739.83;;;6.97;62.80
79368;BME280;68834;53.152;17.962;2023-04-21T01:59:20;101742.92;;;6.92;62.98
79368;BME280;68834;53.152;17.962;2023-04-21T02:01:47;101741.69;;;6.87;63.01
79368;BME280;68834;53.152;17.962;2023-04-21T02:04:14;101740.44;;;6.83;63.23
79368;BME280;68834;53.152;17.962;2023-04-21T02:06:41;101738.67;;;6.79;63.40
79368;BME280;68834;53.152;17.962;2023-04-21T02:09:07;101740.20;;;6.74;63.55
79368;BME280;68834;53.152;17.962;2023-04-21T02:11:34;101745.02;;;6.67;63.70
79368;BME280;68834;53.152;17.962;2023-04-21T02:14:00;101742.55;;;6.62;63.80
79368;BME280;68834;53.152;17.962;2023-04-21T02:16:27;101742.17;;;6.57;63.71
79368;BME280;68834;53.152;17.962;2023-04-21T02:18:55;101739.73;;;6.54;63.87
79368;BME280;68834;53.152;17.962;2023-04-21T02:21:23;101740.04;;;6.51;64.02
79368;BME280;68834;53.152;17.962;2023-04-21T02:23:50;101737.41;;;6.49;64.05
79368;BME280;68834;53.152;17.962;2023-04-21T02:26:18;101736.39;;;6.51;64.11
79368;BME280;68834;53.152;17.962;2023-04-21T02:28:46;101734.31;;;6.51;64.08
79368;BME280;68834;53.152;17.962;2023-04-21T02:31:16;101732.40;;;6.50;64.03
79368;BME280;68834;53.152;17.962;2023-04-21T02:33:44;101734.80;;;6.49;64.16
79368;BME280;68834;53.152;17.962;2023-04-21T02:36:11;101739.83;;;6.46;64.43
79368;BME280;68834;53.152;17.962;2023-04-21T02:38:38;101738.06;;;6.42;64.49
79368;BME280;68834;53.152;17.962;2023-04-21T02:41:05;101742.88;;;6.38;64.60
79368;BME280;68834;53.152;17.962;2023-04-21T02:43:33;101737.77;;;6.28;64.82
79368;BME280;68834;53.152;17.962;2023-04-21T02:46:05;101736.15;;;6.22;64.95
79368;BME280;68834;53.152;17.962;2023-04-21T02:48:35;101735.76;;;6.16;64.96
79368;BME280;68834;53.152;17.962;2023-04-21T02:51:01;101732.21;;;6.10;65.02
79368;BME280;68834;53.152;17.962;2023-04-21T02:53:30;101734.27;;;6.05;64.96
79368;BME280;68834;53.152;17.962;2023-04-21T02:55:56;101738.91;;;6.02;65.38
79368;BME280;68834;53.152;17.962;2023-04-21T02:58:24;101737.48;;;5.99;65.35
79368;BME280;68834;53.152;17.962;2023-04-21T03:00:50;101731.56;;;5.95;65.55
79368;BME280;68834;53.152;17.962;2023-04-21T03:03:17;101730.14;;;5.93;65.68
79368;BME280;68834;53.152;17.962;2023-04-21T03:05:45;101732.88;;;5.91;65.67
79368;BME280;68834;53.152;17.962;2023-04-21T03:08:11;101730.46;;;5.92;65.86
79368;BME280;68834;53.152;17.962;2023-04-21T03:10:38;101733.91;;;5.90;66.06
79368;BME280;68834;53.152;17.962;2023-04-21T03:13:05;101733.00;;;5.85;65.99
79368;BME280;68834;53.152;17.962;2023-04-21T03:15:31;101733.80;;;5.80;66.26
79368;BME280;68834;53.152;17.962;2023-04-21T03:18:00;101731.09;;;5.70;66.67
79368;BME280;68834;53.152;17.962;2023-04-21T03:20:27;101736.23;;;5.64;66.51
79368;BME280;68834;53.152;17.962;2023-04-21T03:22:53;101732.71;;;5.59;66.71
79368;BME280;68834;53.152;17.962;2023-04-21T03:25:20;101738.70;;;5.52;67.00
79368;BME280;68834;53.152;17.962;2023-04-21T03:27:47;101733.95;;;5.47;66.76
79368;BME280;68834;53.152;17.962;2023-04-21T03:30:14;101735.64;;;5.44;66.87
79368;BME280;68834;53.152;17.962;2023-04-21T03:32:40;101736.31;;;5.41;66.99
79368;BME280;68834;53.152;17.962;2023-04-21T03:35:07;101734.23;;;5.42;67.23
79368;BME280;68834;53.152;17.962;2023-04-21T03:37:34;101730.27;;;5.45;66.98
79368;BME280;68834;53.152;17.962;2023-04-21T03:40:00;101728.92;;;5.47;67.21
79368;BME280;68834;53.152;17.962;2023-04-21T03:42:27;101730.50;;;5.49;67.24
79368;BME280;68834;53.152;17.962;2023-04-21T03:45:00;101730.53;;;5.52;67.34
79368;BME280;68834;53.152;17.962;2023-04-21T03:47:27;101728.84;;;5.56;67.31
79368;BME280;68834;53.152;17.962;2023-04-21T03:49:54;101728.17;;;5.57;67.49
79368;BME280;68834;53.152;17.962;2023-04-21T03:52:21;101726.27;;;5.58;67.43
79368;BME280;68834;53.152;17.962;2023-04-21T03:54:47;101726.80;;;5.59;67.34
79368;BME280;68834;53.152;17.962;2023-04-21T03:57:15;101725.38;;;5.56;67.52
79368;BME280;68834;53.152;17.962;2023-04-21T03:59:43;101722.95;;;5.55;67.47
79368;BME280;68834;53.152;17.962;2023-04-21T04:02:10;101726.91;;;5.53;67.62
79368;BME280;68834;53.152;17.962;2023-04-21T04:04:36;101726.72;;;5.52;67.65
79368;BME280;68834;53.152;17.962;2023-04-21T04:07:03;101729.68;;;5.52;67.53
79368;BME280;68834;53.152;17.962;2023-04-21T04:09:30;101730.41;;;5.56;67.78
79368;BME280;68834;53.152;17.962;2023-04-21T04:11:57;101732.36;;;5.60;67.59
79368;BME280;68834;53.152;17.962;2023-04-21T04:14:23;101732.59;;;5.64;67.68
79368;BME280;68834;53.152;17.962;2023-04-21T04:16:50;101733.33;;;5.68;67.59
79368;BME280;68834;53.152;17.962;2023-04-21T04:19:16;101729.36;;;5.70;67.49
79368;BME280;68834;53.152;17.962;2023-04-21T04:21:43;101732.14;;;5.71;67.88
79368;BME280;68834;53.152;17.962;2023-04-21T04:24:09;101731.47;;;5.73;67.63
79368;BME280;68834;53.152;17.962;2023-04-21T04:26:37;101732.19;;;5.76;67.81
79368;BME280;68834;53.152;17.962;2023-04-21T04:29:04;101734.46;;;5.77;68.07
79368;BME280;68834;53.152;17.962;2023-04-21T04:31:31;101734.99;;;5.79;68.24
79368;BME280;68834;53.152;17.962;2023-04-21T04:33:58;101728.95;;;5.81;68.08
79368;BME280;68834;53.152;17.962;2023-04-21T04:36:24;101726.21;;;5.84;68.12
79368;BME280;68834;53.152;17.962;2023-04-21T04:38:51;101729.53;;;5.87;67.96
79368;BME280;68834;53.152;17.962;2023-04-21T04:41:17;101732.05;;;5.93;68.07
79368;BME280;68834;53.152;17.962;2023-04-21T04:43:46;101727.45;;;6.02;68.03
79368;BME280;68834;53.152;17.962;2023-04-21T04:46:12;101726.33;;;6.11;68.04
79368;BME280;68834;53.152;17.962;2023-04-21T04:48:39;101726.25;;;6.22;67.98
79368;BME280;68834;53.152;17.962;2023-04-21T04:51:06;101720.10;;;6.34;67.77
79368;BME280;68834;53.152;17.962;2023-04-21T04:53:32;101724.36;;;6.44;67.83
79368;BME280;68834;53.152;17.962;2023-04-21T04:55:59;101725.81;;;6.54;67.62
79368;BME280;68834;53.152;17.962;2023-04-21T04:58:26;101726.40;;;6.63;67.72
79368;BME280;68834;53.152;17.962;2023-04-21T05:00:52;101728.72;;;6.73;67.39
79368;BME280;68834;53.152;17.962;2023-04-21T05:03:19;101722.88;;;6.82;67.23
79368;BME280;68834;53.152;17.962;2023-04-21T05:05:46;101722.94;;;6.92;67.25
79368;BME280;68834;53.152;17.962;2023-04-21T05:08:12;101720.04;;;7.01;67.20
79368;BME280;68834;53.152;17.962;2023-04-21T05:10:39;101721.98;;;7.10;67.18
79368;BME280;68834;53.152;17.962;2023-04-21T05:13:06;101725.69;;;7.19;67.02
79368;BME280;68834;53.152;17.962;2023-04-21T05:15:32;101723.47;;;7.26;66.95
79368;BME280;68834;53.152;17.962;2023-04-21T05:17:59;101728.03;;;7.36;66.86
79368;BME280;68834;53.152;17.962;2023-04-21T05:20:25;101731.02;;;7.45;66.53
79368;BME280;68834;53.152;17.962;2023-04-21T05:22:52;101727.05;;;7.54;66.58
79368;BME280;68834;53.152;17.962;2023-04-21T05:25:19;101724.65;;;7.65;66.25
79368;BME280;68834;53.152;17.962;2023-04-21T05:27:45;101730.43;;;7.76;65.97
79368;BME280;68834;53.152;17.962;2023-04-21T05:30:12;101729.07;;;7.90;65.50
79368;BME280;68834;53.152;17.962;2023-04-21T05:32:39;101732.21;;;8.06;65.35
79368;BME280;68834;53.152;17.962;2023-04-21T05:35:06;101727.71;;;8.21;65.28
79368;BME280;68834;53.152;17.962;2023-04-21T05:37:33;101733.29;;;8.36;65.00
79368;BME280;68834;53.152;17.962;2023-04-21T05:39:59;101736.27;;;8.53;64.65
79368;BME280;68834;53.152;17.962;2023-04-21T05:42:26;101733.83;;;8.67;64.32
79368;BME280;68834;53.152;17.962;2023-04-21T05:44:52;101730.84;;;8.81;64.32
79368;BME280;68834;53.152;17.962;2023-04-21T05:47:20;101727.84;;;8.97;64.10
79368;BME280;68834;53.152;17.962;2023-04-21T05:49:50;101729.20;;;9.10;64.13
79368;BME280;68834;53.152;17.962;2023-04-21T05:52:18;101727.76;;;9.24;63.72
79368;BME280;68834;53.152;17.962;2023-04-21T05:54:46;101726.49;;;9.37;62.72
79368;BME280;68834;53.152;17.962;2023-04-21T05:57:12;101723.80;;;9.52;62.37
79368;BME280;68834;53.152;17.962;2023-04-21T05:59:39;101721.63;;;9.67;61.80
79368;BME280;68834;53.152;17.962;2023-04-21T06:02:06;101724.86;;;9.82;60.97
79368;BME280;68834;53.152;17.962;2023-04-21T06:04:33;101727.05;;;9.96;60.35
79368;BME280;68834;53.152;17.962;2023-04-21T06:07:04;101726.95;;;10.10;60.19
79368;BME280;68834;53.152;17.962;2023-04-21T06:09:32;101728.77;;;10.24;59.76
79368;BME280;68834;53.152;17.962;2023-04-21T06:11:59;101722.92;;;10.37;59.57
79368;BME280;68834;53.152;17.962;2023-04-21T06:14:27;101717.56;;;10.51;59.30
79368;BME280;68834;53.152;17.962;2023-04-21T06:16:54;101713.58;;;10.65;59.09
79368;BME280;68834;53.152;17.962;2023-04-21T06:19:21;101716.94;;;10.79;58.72
79368;BME280;68834;53.152;17.962;2023-04-21T06:21:47;101715.73;;;10.93;58.33
79368;BME280;68834;53.152;17.962;2023-04-21T06:24:14;101711.73;;;11.07;57.83
79368;BME280;68834;53.152;17.962;2023-04-21T06:26:41;101713.31;;;11.21;57.22
79368;BME280;68834;53.152;17.962;2023-04-21T06:29:07;101712.27;;;11.35;57.19
79368;BME280;68834;53.152;17.962;2023-04-21T06:31:34;101709.13;;;11.48;56.69
79368;BME280;68834;53.152;17.962;2023-04-21T06:34:00;101709.45;;;11.64;56.88
79368;BME280;68834;53.152;17.962;2023-04-21T06:36:27;101708.19;;;11.79;56.22
79368;BME280;68834;53.152;17.962;2023-04-21T06:38:54;101707.99;;;11.94;55.12
79368;BME280;68834;53.152;17.962;2023-04-21T06:41:20;101710.20;;;12.09;55.28
79368;BME280;68834;53.152;17.962;2023-04-21T06:43:47;101710.46;;;12.26;55.10
79368;BME280;68834;53.152;17.962;2023-04-21T06:46:13;101709.47;;;12.44;55.04
79368;BME280;68834;53.152;17.962;2023-04-21T06:48:40;101705.83;;;12.61;53.99
79368;BME280;68834;53.152;17.962;2023-04-21T06:51:06;101703.58;;;12.78;54.04
79368;BME280;68834;53.152;17.962;2023-04-21T06:53:33;101699.88;;;12.98;52.99
79368;BME280;68834;53.152;17.962;2023-04-21T06:56:00;101703.92;;;13.15;52.81
79368;BME280;68834;53.152;17.962;2023-04-21T06:58:27;101701.66;;;13.33;51.89
79368;BME280;68834;53.152;17.962;2023-04-21T07:00:53;101696.59;;;13.48;49.75
79368;BME280;68834;53.152;17.962;2023-04-21T07:03:20;101698.60;;;13.60;48.00
79368;BME280;68834;53.152;17.962;2023-04-21T07:05:46;101700.09;;;13.73;47.44
79368;BME280;68834;53.152;17.962;2023-04-21T07:08:13;101697.92;;;13.90;48.44
79368;BME280;68834;53.152;17.962;2023-04-21T07:10:40;101698.34;;;14.10;48.55
79368;BME280;68834;53.152;17.962;2023-04-21T07:13:06;101696.75;;;14.31;47.88
79368;BME280;68834;53.152;17.962;2023-04-21T07:15:34;101695.05;;;14.50;46.60
79368;BME280;68834;53.152;17.962;2023-04-21T07:18:00;101693.23;;;14.66;45.24
79368;BME280;68834;53.152;17.962;2023-04-21T07:20:27;101692.92;;;14.84;45.56
79368;BME280;68834;53.152;17.962;2023-04-21T07:22:54;101692.79;;;15.01;44.70
79368;BME280;68834;53.152;17.962;2023-04-21T07:25:20;101694.40;;;15.19;44.69
79368;BME280;68834;53.152;17.962;2023-04-21T07:27:47;101688.62;;;15.36;44.17
79368;BME280;68834;53.152;17.962;2023-04-21T07:30:14;101693.11;;;15.56;43.89
79368;BME280;68834;53.152;17.962;2023-04-21T07:32:41;101690.15;;;15.79;43.91
79368;BME280;68834;53.152;17.962;2023-04-21T07:35:08;101692.50;;;16.00;42.53
79368;BME280;68834;53.152;17.962;2023-04-21T07:37:34;101684.77;;;16.20;42.39
79368;BME280;68834;53.152;17.962;2023-04-21T07:40:01;101684.19;;;16.37;40.76
79368;BME280;68834;53.152;17.962;2023-04-21T07:42:27;101684.03;;;16.57;40.70
79368;BME280;68834;53.152;17.962;2023-04-21T07:44:54;101678.45;;;16.81;39.31
79368;BME280;68834;53.152;17.962;2023-04-21T07:47:22;101679.39;;;17.04;38.95
79368;BME280;68834;53.152;17.962;2023-04-21T07:49:49;101681.10;;;17.29;38.83
79368;BME280;68834;53.152;17.962;2023-04-21T07:52:15;101674.88;;;17.57;38.56
79368;BME280;68834;53.152;17.962;2023-04-21T07:54:42;101677.41;;;17.88;38.27
79368;BME280;68834;53.152;17.962;2023-04-21T07:57:09;101675.35;;;18.25;38.61
79368;BME280;68834;53.152;17.962;2023-04-21T07:59:36;101667.59;;;18.66;37.84
79368;BME280;68834;53.152;17.962;2023-04-21T08:02:02;101663.45;;;18.99;37.15
79368;BME280;68834;53.152;17.962;2023-04-21T08:04:29;101664.68;;;19.30;36.11
79368;BME280;68834;53.152;17.962;2023-04-21T08:06:56;101664.86;;;19.56;35.13
79368;BME280;68834;53.152;17.962;2023-04-21T08:09:23;101661.56;;;19.77;34.95
79368;BME280;68834;53.152;17.962;2023-04-21T08:11:50;101657.98;;;20.00;34.49
79368;BME280;68834;53.152;17.962;2023-04-21T08:14:16;101661.05;;;20.27;34.76
79368;BME280;68834;53.152;17.962;2023-04-21T08:16:43;101658.17;;;20.59;34.26
79368;BME280;68834;53.152;17.962;2023-04-21T08:19:09;101659.76;;;20.80;31.45
79368;BME280;68834;53.152;17.962;2023-04-21T08:21:36;101655.91;;;20.85;30.85
79368;BME280;68834;53.152;17.962;2023-04-21T08:24:03;101656.14;;;20.91;30.83
79368;BME280;68834;53.152;17.962;2023-04-21T08:26:29;101657.47;;;21.05;30.32
79368;BME280;68834;53.152;17.962;2023-04-21T08:28:56;101653.36;;;21.19;30.36
79368;BME280;68834;53.152;17.962;2023-04-21T08:31:23;101653.42;;;21.44;30.45
79368;BME280;68834;53.152;17.962;2023-04-21T08:33:49;101657.11;;;21.64;29.83
79368;BME280;68834;53.152;17.962;2023-04-21T08:36:16;101651.83;;;21.85;28.96
79368;BME280;68834;53.152;17.962;2023-04-21T08:38:43;101647.55;;;22.09;28.96
79368;BME280;68834;53.152;17.962;2023-04-21T08:41:10;101644.17;;;22.31;28.44
79368;BME280;68834;53.152;17.962;2023-04-21T08:43:36;101646.70;;;22.42;27.47
79368;BME280;68834;53.152;17.962;2023-04-21T08:46:07;101644.14;;;22.52;28.11
79368;BME280;68834;53.152;17.962;2023-04-21T08:48:37;101639.23;;;22.73;27.67
79368;BME280;68834;53.152;17.962;2023-04-21T08:51:08;101643.02;;;22.96;28.07
79368;BME280;68834;53.152;17.962;2023-04-21T08:53:36;101642.27;;;23.25;26.20
79368;BME280;68834;53.152;17.962;2023-04-21T08:56:02;101647.54;;;23.16;24.17
79368;BME280;68834;53.152;17.962;2023-04-21T08:58:29;101645.55;;;22.87;23.99
79368;BME280;68834;53.152;17.962;2023-04-21T09:00:56;101640.46;;;22.74;24.28
79368;BME280;68834;53.152;17.962;2023-04-21T09:03:25;101641.73;;;22.73;24.43
79368;BME280;68834;53.152;17.962;2023-04-21T09:06:01;101640.06;;;22.83;23.11
79368;BME280;68834;53.152;17.962;2023-04-21T09:08:31;101635.79;;;22.54;21.59
79368;BME280;68834;53.152;17.962;2023-04-21T09:10:59;101639.41;;;22.50;22.89
79368;BME280;68834;53.152;17.962;2023-04-21T09:13:31;101641.70;;;22.47;21.73
79368;BME280;68834;53.152;17.962;2023-04-21T09:16:00;101636.57;;;22.33;22.80
79368;BME280;68834;53.152;17.962;2023-04-21T09:18:28;101637.36;;;22.46;22.72
79368;BME280;68834;53.152;17.962;2023-04-21T09:21:08;101632.58;;;22.63;22.30
79368;BME280;68834;53.152;17.962;2023-04-21T09:23:39;101634.68;;;22.78;22.05
79368;BME280;68834;53.152;17.962;2023-04-21T09:26:07;101633.73;;;22.96;22.34
79368;BME280;68834;53.152;17.962;2023-04-21T09:28:34;101632.42;;;23.28;22.36
79368;BME280;68834;53.152;17.962;2023-04-21T09:31:00;101629.69;;;23.49;21.60
79368;BME280;68834;53.152;17.962;2023-04-21T09:33:27;101627.09;;;23.67;22.15
79368;BME280;68834;53.152;17.962;2023-04-21T09:35:54;101624.22;;;23.91;21.77
79368;BME280;68834;53.152;17.962;2023-04-21T09:38:21;101621.39;;;24.07;21.59
79368;BME280;68834;53.152;17.962;2023-04-21T09:40:57;101623.95;;;24.22;20.79
79368;BME280;68834;53.152;17.962;2023-04-21T09:43:24;101628.35;;;24.28;20.70
79368;BME280;68834;53.152;17.962;2023-04-21T09:45:52;101623.48;;;24.28;20.45
79368;BME280;68834;53.152;17.962;2023-04-21T09:48:21;101624.58;;;24.36;20.89
79368;BME280;68834;53.152;17.962;2023-04-21T09:50:50;101617.06;;;24.54;21.21
79368;BME280;68834;53.152;17.962;2023-04-21T09:53:20;101615.97;;;24.75;20.68
79368;BME280;68834;53.152;17.962;2023-04-21T09:55:50;101618.71;;;24.84;20.72
79368;BME280;68834;53.152;17.962;2023-04-21T09:58:19;101618.77;;;24.94;20.32
79368;BME280;68834;53.152;17.962;2023-04-21T10:00:50;101613.11;;;24.92;20.10
79368;BME280;68834;53.152;17.962;2023-04-21T10:03:20;101606.63;;;24.78;19.96
79368;BME280;68834;53.152;17.962;2023-04-21T10:05:49;101614.13;;;24.55;20.20
79368;BME280;68834;53.152;17.962;2023-04-21T10:08:16;101610.44;;;24.55;20.37
79368;BME280;68834;53.152;17.962;2023-04-21T10:10:44;101604.90;;;24.60;20.07
79368;BME280;68834;53.152;17.962;2023-04-21T10:13:13;101600.50;;;24.49;20.98
79368;BME280;68834;53.152;17.962;2023-04-21T10:15:43;101599.88;;;24.65;20.33
79368;BME280;68834;53.152;17.962;2023-04-21T10:18:23;101599.29;;;24.76;20.58
79368;BME280;68834;53.152;17.962;2023-04-21T10:23:30;101594.20;;;25.27;19.87
79368;BME280;68834;53.152;17.962;2023-04-21T10:26:20;101584.60;;;25.48;20.34
79368;BME280;68834;53.152;17.962;2023-04-21T10:28:56;101584.96;;;25.81;20.16
79368;BME280;68834;53.152;17.962;2023-04-21T10:31:36;101575.55;;;26.06;20.01
79368;BME280;68834;53.152;17.962;2023-04-21T10:36:34;101576.85;;;26.28;19.78
79368;BME280;68834;53.152;17.962;2023-04-21T10:39:02;101572.56;;;26.24;18.77
79368;BME280;68834;53.152;17.962;2023-04-21T10:41:31;101577.53;;;26.27;19.62
79368;BME280;68834;53.152;17.962;2023-04-21T10:43:59;101575.23;;;26.47;18.76
79368;BME280;68834;53.152;17.962;2023-04-21T10:46:40;101577.10;;;26.64;18.19
79368;BME280;68834;53.152;17.962;2023-04-21T10:49:20;101576.02;;;26.69;18.04
79368;BME280;68834;53.152;17.962;2023-04-21T10:54:28;101566.69;;;26.76;17.76
79368;BME280;68834;53.152;17.962;2023-04-21T10:56:57;101562.48;;;26.61;17.77
79368;BME280;68834;53.152;17.962;2023-04-21T10:59:27;101559.14;;;26.80;18.38
79368;BME280;68834;53.152;17.962;2023-04-21T11:01:54;101561.00;;;26.84;16.92
79368;BME280;68834;53.152;17.962;2023-04-21T11:04:21;101562.19;;;26.74;16.81
79368;BME280;68834;53.152;17.962;2023-04-21T11:07:10;101556.61;;;26.49;16.45
79368;BME280;68834;53.152;17.962;2023-04-21T11:09:38;101557.83;;;26.26;16.76
79368;BME280;68834;53.152;17.962;2023-04-21T11:12:07;101546.52;;;27.08;16.37
79368;BME280;68834;53.152;17.962;2023-04-21T11:14:36;101550.62;;;28.94;15.64
79368;BME280;68834;53.152;17.962;2023-04-21T11:17:04;101545.84;;;30.84;14.85
79368;BME280;68834;53.152;17.962;2023-04-21T11:19:31;101536.86;;;32.74;14.27
79368;BME280;68834;53.152;17.962;2023-04-21T11:21:58;101536.30;;;34.11;11.98
79368;BME280;68834;53.152;17.962;2023-04-21T11:24:25;101536.06;;;34.71;11.50
79368;BME280;68834;53.152;17.962;2023-04-21T11:26:51;101532.14;;;35.45;11.88
79368;BME280;68834;53.152;17.962;2023-04-21T11:29:18;101523.64;;;36.69;12.12
79368;BME280;68834;53.152;17.962;2023-04-21T11:31:45;101524.52;;;37.79;11.06
79368;BME280;68834;53.152;17.962;2023-04-21T11:34:15;101520.66;;;38.72;10.64
79368;BME280;68834;53.152;17.962;2023-04-21T11:36:43;101524.43;;;39.54;9.48
79368;BME280;68834;53.152;17.962;2023-04-21T11:39:12;101517.33;;;40.33;9.61
79368;BME280;68834;53.152;17.962;2023-04-21T11:41:40;101515.66;;;41.16;9.38
79368;BME280;68834;53.152;17.962;2023-04-21T11:44:08;101510.98;;;41.88;9.00
79368;BME280;68834;53.152;17.962;2023-04-21T11:46:36;101509.70;;;42.12;7.96
79368;BME280;68834;53.152;17.962;2023-04-21T11:49:05;101508.82;;;42.14;8.25
79368;BME280;68834;53.152;17.962;2023-04-21T11:51:37;101503.86;;;42.56;8.19
79368;BME280;68834;53.152;17.962;2023-04-21T11:54:05;101501.17;;;43.04;8.04
79368;BME280;68834;53.152;17.962;2023-04-21T11:56:42;101503.29;;;43.05;7.04
79368;BME280;68834;53.152;17.962;2023-04-21T11:59:14;101501.30;;;42.95;7.44
79368;BME280;68834;53.152;17.962;2023-04-21T12:01:45;101499.83;;;42.91;7.88
79368;BME280;68834;53.152;17.962;2023-04-21T12:04:17;101498.02;;;43.17;7.47
79368;BME280;68834;53.152;17.962;2023-04-21T12:06:44;101489.92;;;43.39;7.44
79368;BME280;68834;53.152;17.962;2023-04-21T12:09:19;101488.52;;;43.53;7.59
79368;BME280;68834;53.152;17.962;2023-04-21T12:11:47;101487.54;;;43.65;7.27
79368;BME280;68834;53.152;17.962;2023-04-21T12:14:19;101480.69;;;43.61;7.19
79368;BME280;68834;53.152;17.962;2023-04-21T12:16:52;101478.15;;;43.15;7.04
79368;BME280;68834;53.152;17.962;2023-04-21T12:21:53;101468.28;;;42.52;7.27
79368;BME280;68834;53.152;17.962;2023-04-21T12:24:21;101471.09;;;42.41;7.26
79368;BME280;68834;53.152;17.962;2023-04-21T12:26:48;101466.81;;;42.05;6.90
79368;BME280;68834;53.152;17.962;2023-04-21T12:29:15;101462.34;;;41.81;7.14
79368;BME280;68834;53.152;17.962;2023-04-21T12:31:41;101459.52;;;41.72;7.05
79368;BME280;68834;53.152;17.962;2023-04-21T12:34:08;101455.11;;;41.33;7.39
79368;BME280;68834;53.152;17.962;2023-04-21T12:36:34;101452.36;;;41.38;7.67
79368;BME280;68834;53.152;17.962;2023-04-21T12:39:01;101448.84;;;41.55;7.57
79368;BME280;68834;53.152;17.962;2023-04-21T12:41:28;101449.44;;;41.33;7.30
79368;BME280;68834;53.152;17.962;2023-04-21T12:43:54;101451.21;;;40.37;6.91
79368;BME280;68834;53.152;17.962;2023-04-21T12:46:21;101447.73;;;39.40;7.26
79368;BME280;68834;53.152;17.962;2023-04-21T12:48:47;101448.56;;;38.72;7.91
79368;BME280;68834;53.152;17.962;2023-04-21T12:51:14;101447.48;;;38.39;8.42
79368;BME280;68834;53.152;17.962;2023-04-21T12:53:40;101445.14;;;38.22;8.30
79368;BME280;68834;53.152;17.962;2023-04-21T12:56:07;101444.29;;;37.95;8.57
79368;BME280;68834;53.152;17.962;2023-04-21T12:58:33;101435.54;;;37.64;8.92